KGMU

Greenville Downtown Airport

Greenville, South Carolina, USA
METAR KGMU 201253Z 30003KT 10SM CLR 01/M10 A3019 RMK AO2 SLP227 T00061100
Observed Flight Rules
Jan-20 @ 12:53 UTC (18 minutes ago) Visual Flight Rules
Wind Visibility Clouds
300° at 3 knots 10 miles
  • Clear skies
Temperatures Readings
Current 1°C / 34°F
Dewpoint -10°C / 14°F
Humidity 44%
Altimeter 30.19" Hg
Pressure 1022.7 hPa
Elevation 315
METAR KGMU 201253Z 30003KT 10SM CLR 01/M10 A3019 RMK AO2 SLP227 T00061100
Observed Flight Rules
Jan-20 @ 12:53 UTC
(18 minutes ago)
VFR
Wind Visibility
300° at 3 knots 10 miles
Clouds
  • Clear skies
Temperature Dewpoint
1°C / 34°F -10°C / 14°F
Humidity Altimeter Pressure
44% 30.19" Hg 1022.7 hPa